createdAt,value
2018-04-29T00:00:00.350Z,13.53
2018-04-29T00:01:00.247Z,13.49
2018-04-29T00:02:00.157Z,13.47
2018-04-29T00:03:00.052Z,13.52
2018-04-29T00:03:59.962Z,13.50
2018-04-29T00:04:59.858Z,13.49
2018-04-29T00:05:59.766Z,13.47
2018-04-29T00:06:59.678Z,13.67
2018-04-29T00:07:59.572Z,13.63
2018-04-29T00:08:59.481Z,13.71
2018-04-29T00:09:59.381Z,13.85
2018-04-29T00:10:59.288Z,13.87
2018-04-29T00:11:59.224Z,13.90
2018-04-29T00:12:59.107Z,13.93
2018-04-29T00:13:58.990Z,13.92
2018-04-29T00:14:58.900Z,13.90
2018-04-29T00:15:58.807Z,13.92
2018-04-29T00:16:58.705Z,13.90
2018-04-29T00:17:58.615Z,14.00
2018-04-29T00:18:58.515Z,14.03
2018-04-29T00:19:58.482Z,14.00
2018-04-29T00:20:58.316Z,14.04
2018-04-29T00:21:58.227Z,14.03
2018-04-29T00:22:58.123Z,14.11
2018-04-29T00:23:58.031Z,14.17
2018-04-29T00:24:57.929Z,14.20
2018-04-29T00:25:57.841Z,14.26
2018-04-29T00:26:57.736Z,14.20
2018-04-29T00:27:57.644Z,14.29
2018-04-29T00:28:57.553Z,14.32
2018-04-29T00:29:57.449Z,14.29
2018-04-29T00:30:57.358Z,14.29
2018-04-29T00:31:57.256Z,14.28
2018-04-29T00:32:57.173Z,14.28
2018-04-29T00:33:57.062Z,14.28
2018-04-29T00:34:56.970Z,14.14
2018-04-29T00:35:56.867Z,14.23
2018-04-29T00:36:56.776Z,14.17
2018-04-29T00:37:56.684Z,14.07
2018-04-29T00:38:56.583Z,14.05
2018-04-29T00:39:56.491Z,14.04
2018-04-29T00:40:56.388Z,13.96
2018-04-29T00:41:56.297Z,13.90
2018-04-29T00:42:56.193Z,13.89
2018-04-29T00:43:56.104Z,13.87
2018-04-29T00:44:56.000Z,13.74
2018-04-29T00:45:55.910Z,13.75
2018-04-29T00:46:55.818Z,13.74
2018-04-29T00:47:55.719Z,13.65
2018-04-29T00:48:55.624Z,13.57
2018-04-29T00:49:55.520Z,13.44
2018-04-29T00:50:55.494Z,13.49
2018-04-29T00:51:55.327Z,13.39
2018-04-29T00:52:55.237Z,13.35
2018-04-29T00:53:55.133Z,13.31
2018-04-29T00:54:55.042Z,13.23
2018-04-29T00:55:54.963Z,13.16
2018-04-29T00:56:54.847Z,13.20
2018-04-29T00:57:54.758Z,13.09
2018-04-29T00:58:54.654Z,13.09
2018-04-29T00:59:54.565Z,13.04
2018-04-29T01:00:54.460Z,12.94
2018-04-29T01:01:54.369Z,12.95
2018-04-29T01:02:54.265Z,12.98
2018-04-29T01:03:54.175Z,12.94
2018-04-29T01:04:54.070Z,12.94
2018-04-29T01:05:53.984Z,12.90
2018-04-29T01:06:53.877Z,12.91
2018-04-29T01:07:53.786Z,12.80
2018-04-29T01:08:53.682Z,12.75
2018-04-29T01:09:53.593Z,12.76
2018-04-29T01:10:53.489Z,12.75
2018-04-29T01:11:53.397Z,12.73
2018-04-29T01:12:53.295Z,12.72
2018-04-29T01:13:53.204Z,12.73
2018-04-29T01:14:53.112Z,12.75
2018-04-29T01:15:53.009Z,12.62
2018-04-29T01:16:52.907Z,12.70
2018-04-29T01:17:52.815Z,12.58
2018-04-29T01:18:52.724Z,12.61
2018-04-29T01:19:52.620Z,12.57
2018-04-29T01:20:52.769Z,12.58
2018-04-29T01:21:52.427Z,12.54
2018-04-29T01:22:52.352Z,12.60
2018-04-29T01:23:52.233Z,12.53
2018-04-29T01:24:52.131Z,12.50
2018-04-29T01:25:52.041Z,12.55
2018-04-29T01:26:51.947Z,12.62
2018-04-29T01:27:51.844Z,12.62
2018-04-29T01:28:51.742Z,12.62
2018-04-29T01:29:51.651Z,12.60
2018-04-29T01:30:51.559Z,12.62
2018-04-29T01:31:51.456Z,12.61
2018-04-29T01:32:51.354Z,12.60
2018-04-29T01:33:51.262Z,12.58
2018-04-29T01:34:51.172Z,12.57
2018-04-29T01:35:51.068Z,12.64
2018-04-29T01:36:50.966Z,12.58
2018-04-29T01:37:50.874Z,12.73
2018-04-29T01:38:50.782Z,12.72
2018-04-29T01:39:50.679Z,12.60
2018-04-29T01:40:50.590Z,12.73
2018-04-29T01:41:50.486Z,12.68
2018-04-29T01:42:50.394Z,12.76
2018-04-29T01:43:50.291Z,12.65
2018-04-29T01:44:50.201Z,12.76
2018-04-29T01:45:50.098Z,12.83
2018-04-29T01:46:50.011Z,12.82
2018-04-29T01:47:49.916Z,12.83
2018-04-29T01:48:49.813Z,12.90
2018-04-29T01:49:49.711Z,12.95
2018-04-29T01:50:49.618Z,12.94
2018-04-29T01:51:49.514Z,12.90
2018-04-29T01:52:49.425Z,12.90
2018-04-29T01:53:49.324Z,12.93
2018-04-29T01:54:49.231Z,12.98
2018-04-29T01:55:49.127Z,13.00
2018-04-29T01:56:49.037Z,12.95
2018-04-29T01:57:48.938Z,12.98
2018-04-29T01:58:48.841Z,13.01
2018-04-29T01:59:48.743Z,12.94
2018-04-29T02:00:48.949Z,12.93
2018-04-29T02:01:48.546Z,12.90
2018-04-29T02:02:48.453Z,12.83
2018-04-29T02:03:48.351Z,12.79
2018-04-29T02:04:48.261Z,12.73
2018-04-29T02:05:48.157Z,12.72
2018-04-29T02:06:48.065Z,12.72
2018-04-29T02:07:47.975Z,12.75
2018-04-29T02:08:47.874Z,12.68
2018-04-29T02:09:47.780Z,12.58
2018-04-29T02:10:47.678Z,12.62
2018-04-29T02:11:47.587Z,12.67
2018-04-29T02:12:47.484Z,12.58
2018-04-29T02:13:47.392Z,12.61
2018-04-29T02:14:47.288Z,12.67
2018-04-29T02:15:47.205Z,12.67
2018-04-29T02:16:47.098Z,12.61
2018-04-29T02:17:47.004Z,12.61
2018-04-29T02:18:46.901Z,12.60
2018-04-29T02:19:46.812Z,12.47
2018-04-29T02:20:46.957Z,12.54
2018-04-29T02:21:46.616Z,12.45
2018-04-29T02:22:46.515Z,12.42
2018-04-29T02:23:46.425Z,12.47
2018-04-29T02:24:46.323Z,12.42
2018-04-29T02:25:46.228Z,12.46
2018-04-29T02:26:46.126Z,12.36
2018-04-29T02:27:46.034Z,12.32
2018-04-29T02:28:45.931Z,12.42
2018-04-29T02:29:45.839Z,12.32
2018-04-29T02:30:45.741Z,12.31
2018-04-29T02:31:45.646Z,12.32
2018-04-29T02:32:45.542Z,12.29
2018-04-29T02:33:45.454Z,12.29
2018-04-29T02:34:45.348Z,12.32
2018-04-29T02:35:45.259Z,12.22
2018-04-29T02:36:45.156Z,12.35
2018-04-29T02:37:45.077Z,12.25
2018-04-29T02:38:44.960Z,12.24
2018-04-29T02:39:44.871Z,12.29
2018-04-29T02:40:44.766Z,12.18
2018-04-29T02:41:44.664Z,12.21
2018-04-29T02:42:44.573Z,12.20
2018-04-29T02:43:44.473Z,12.20
2018-04-29T02:44:44.380Z,12.21
2018-04-29T02:45:44.275Z,12.21
2018-04-29T02:46:44.183Z,12.32
2018-04-29T02:47:44.081Z,12.29
2018-04-29T02:48:43.991Z,12.28
2018-04-29T02:49:43.887Z,12.39
2018-04-29T02:50:43.798Z,12.35
2018-04-29T02:51:43.693Z,12.45
2018-04-29T02:52:43.603Z,12.32
2018-04-29T02:53:43.498Z,12.47
2018-04-29T02:54:43.407Z,12.49
2018-04-29T02:55:43.303Z,12.45
2018-04-29T02:56:43.214Z,12.43
2018-04-29T02:57:43.110Z,12.49
2018-04-29T02:58:43.019Z,12.54
2018-04-29T02:59:42.916Z,12.47
2018-04-29T03:00:43.127Z,12.43
2018-04-29T03:01:42.722Z,12.57
2018-04-29T03:02:42.631Z,12.64
2018-04-29T03:03:42.533Z,12.70
2018-04-29T03:04:42.425Z,12.55
2018-04-29T03:05:42.334Z,12.67
2018-04-29T03:06:42.231Z,12.65
2018-04-29T03:07:42.138Z,12.61
2018-04-29T03:08:42.036Z,12.64
2018-04-29T03:09:41.945Z,12.61
2018-04-29T03:10:41.843Z,12.61
2018-04-29T03:11:41.751Z,12.57
2018-04-29T03:12:41.648Z,12.45
2018-04-29T03:13:41.557Z,12.49
2018-04-29T03:14:41.454Z,12.47
2018-04-29T03:15:41.363Z,12.43
2018-04-29T03:16:41.259Z,12.54
2018-04-29T03:17:41.169Z,12.47
2018-04-29T03:18:41.065Z,12.46
2018-04-29T03:19:40.974Z,12.35
2018-04-29T03:20:40.871Z,12.31
2018-04-29T03:21:40.780Z,12.36
2018-04-29T03:22:40.678Z,12.17
2018-04-29T03:23:40.586Z,12.25
2018-04-29T03:24:40.496Z,12.12
2018-04-29T03:25:40.393Z,12.09
2018-04-29T03:26:40.289Z,12.03
2018-04-29T03:27:40.199Z,12.03
2018-04-29T03:28:40.098Z,12.02
2018-04-29T03:29:39.991Z,12.00
2018-04-29T03:30:39.901Z,11.88
2018-04-29T03:31:39.799Z,11.88
2018-04-29T03:32:39.706Z,11.73
2018-04-29T03:33:39.603Z,11.73
2018-04-29T03:34:39.512Z,11.70
2018-04-29T03:35:39.409Z,11.66
2018-04-29T03:36:39.317Z,11.68
2018-04-29T03:37:39.216Z,11.55
2018-04-29T03:38:39.112Z,11.52
2018-04-29T03:39:39.021Z,11.55
2018-04-29T03:40:39.167Z,11.47
2018-04-29T03:41:38.825Z,11.55
2018-04-29T03:42:38.736Z,11.55
2018-04-29T03:43:38.633Z,11.40
2018-04-29T03:44:38.529Z,11.48
2018-04-29T03:45:38.439Z,11.50
2018-04-29T03:46:38.347Z,11.37
2018-04-29T03:47:38.232Z,11.35
2018-04-29T03:48:38.141Z,11.40
2018-04-29T03:49:38.038Z,11.36
2018-04-29T03:50:37.945Z,11.36
2018-04-29T03:51:37.852Z,11.33
2018-04-29T03:52:37.753Z,11.32
2018-04-29T03:53:37.649Z,11.30
2018-04-29T03:54:37.545Z,11.32
2018-04-29T03:55:37.454Z,11.26
2018-04-29T03:56:37.350Z,11.35
2018-04-29T03:57:37.262Z,11.25
2018-04-29T03:58:37.158Z,11.27
2018-04-29T03:59:37.079Z,11.26
2018-04-29T04:00:36.963Z,11.32
2018-04-29T04:01:36.860Z,11.32
2018-04-29T04:02:36.832Z,11.29
2018-04-29T04:03:36.666Z,11.36
2018-04-29T04:04:36.575Z,11.29
2018-04-29T04:05:36.471Z,11.37
2018-04-29T04:06:36.369Z,11.35
2018-04-29T04:07:36.278Z,11.35
2018-04-29T04:08:36.175Z,11.36
2018-04-29T04:09:36.085Z,11.50
2018-04-29T04:10:35.979Z,11.50
2018-04-29T04:11:35.889Z,11.48
2018-04-29T04:12:35.790Z,11.51
2018-04-29T04:13:35.684Z,11.55
2018-04-29T04:14:35.591Z,11.65
2018-04-29T04:15:35.488Z,11.69
2018-04-29T04:16:35.398Z,11.69
2018-04-29T04:17:35.294Z,11.72
2018-04-29T04:18:35.204Z,11.69
2018-04-29T04:19:35.100Z,11.77
2018-04-29T04:20:34.998Z,11.69
2018-04-29T04:21:34.906Z,11.73
2018-04-29T04:22:34.803Z,11.72
2018-04-29T04:23:34.711Z,11.73
2018-04-29T04:24:34.611Z,11.69
2018-04-29T04:25:34.518Z,11.75
2018-04-29T04:26:34.423Z,11.81
2018-04-29T04:27:34.324Z,11.77
2018-04-29T04:28:34.220Z,11.84
2018-04-29T04:29:34.119Z,11.88
2018-04-29T04:30:34.027Z,11.83
2018-04-29T04:31:33.923Z,12.00
2018-04-29T04:32:33.832Z,12.07
2018-04-29T04:33:33.728Z,12.03
2018-04-29T04:34:33.638Z,12.09
2018-04-29T04:35:33.836Z,12.03
2018-04-29T04:36:33.443Z,12.03
2018-04-29T04:37:33.341Z,12.06
2018-04-29T04:38:33.254Z,12.12
2018-04-29T04:39:33.149Z,12.09
2018-04-29T04:40:33.055Z,12.07
2018-04-29T04:41:32.952Z,12.12
2018-04-29T04:42:32.862Z,12.18
2018-04-29T04:43:32.758Z,12.18
2018-04-29T04:44:32.655Z,12.28
2018-04-29T04:45:32.564Z,12.29
2018-04-29T04:46:32.460Z,12.29
2018-04-29T04:47:32.370Z,12.39
2018-04-29T04:48:32.267Z,12.36
2018-04-29T04:49:32.175Z,12.43
2018-04-29T04:50:32.147Z,12.46
2018-04-29T04:51:31.982Z,12.47
2018-04-29T04:52:31.878Z,12.45
2018-04-29T04:53:31.787Z,12.60
2018-04-29T04:54:31.683Z,12.62
2018-04-29T04:55:31.593Z,12.65
2018-04-29T04:56:31.490Z,12.58
2018-04-29T04:57:31.399Z,12.65
2018-04-29T04:58:31.296Z,12.70
2018-04-29T04:59:31.205Z,12.73
2018-04-29T05:00:31.102Z,12.73
2018-04-29T05:01:31.010Z,12.80
2018-04-29T05:02:30.907Z,12.86
2018-04-29T05:03:30.819Z,13.03
2018-04-29T05:04:30.713Z,12.97
2018-04-29T05:05:30.621Z,13.08
2018-04-29T05:06:30.518Z,13.11
2018-04-29T05:07:30.428Z,13.28
2018-04-29T05:08:30.326Z,13.60
2018-04-29T05:09:30.246Z,13.97
2018-04-29T05:10:30.129Z,14.47
2018-04-29T05:11:30.041Z,14.99
2018-04-29T05:12:29.940Z,15.67
2018-04-29T05:13:29.846Z,16.10
2018-04-29T05:14:29.747Z,16.51
2018-04-29T05:15:29.652Z,16.90
2018-04-29T05:16:29.561Z,17.16
2018-04-29T05:17:29.462Z,17.46
2018-04-29T05:18:29.367Z,17.59
2018-04-29T05:19:29.275Z,17.95
2018-04-29T05:20:29.173Z,17.90
2018-04-29T05:21:29.083Z,18.10
2018-04-29T05:22:28.982Z,18.20
2018-04-29T05:23:28.887Z,18.50
2018-04-29T05:24:28.797Z,18.66
2018-04-29T05:25:28.704Z,18.90
2018-04-29T05:26:28.606Z,19.04
2018-04-29T05:27:28.513Z,19.16
2018-04-29T05:28:28.421Z,19.44
2018-04-29T05:29:28.321Z,19.66
2018-04-29T05:30:28.228Z,19.88
2018-04-29T05:31:28.136Z,19.89
2018-04-29T05:32:28.046Z,20.13
2018-04-29T05:33:27.954Z,20.26
2018-04-29T05:34:27.855Z,20.26
2018-04-29T05:35:27.776Z,20.44
2018-04-29T05:36:27.683Z,20.48
2018-04-29T05:37:27.579Z,20.26
2018-04-29T05:38:27.488Z,20.24
2018-04-29T05:39:27.398Z,20.47
2018-04-29T05:40:27.336Z,20.66
2018-04-29T05:41:27.223Z,20.88
2018-04-29T05:42:27.124Z,21.11
2018-04-29T05:43:27.034Z,20.97
2018-04-29T05:44:26.931Z,21.02
2018-04-29T05:45:26.843Z,21.43
2018-04-29T05:46:26.750Z,21.83
2018-04-29T05:47:26.659Z,22.10
2018-04-29T05:48:26.568Z,22.33
2018-04-29T05:49:26.478Z,22.68
2018-04-29T05:50:26.388Z,22.88
2018-04-29T05:51:26.299Z,22.66
2018-04-29T05:52:26.210Z,23.05
2018-04-29T05:53:26.121Z,22.78
2018-04-29T05:54:26.036Z,22.94
2018-04-29T05:55:25.949Z,23.32
2018-04-29T05:56:25.854Z,23.41
2018-04-29T05:57:25.763Z,23.37
2018-04-29T05:58:25.672Z,22.41
2018-04-29T05:59:25.583Z,21.54
2018-04-29T06:00:25.551Z,21.25
2018-04-29T06:01:25.400Z,21.46
2018-04-29T06:02:25.311Z,21.11
2018-04-29T06:03:25.232Z,20.56
2018-04-29T06:04:25.142Z,20.25
2018-04-29T06:05:25.049Z,20.55
2018-04-29T06:06:24.974Z,20.96
2018-04-29T06:07:24.868Z,21.21
2018-04-29T06:08:24.778Z,20.90
2018-04-29T06:09:24.688Z,20.44
2018-04-29T06:10:24.609Z,20.04
2018-04-29T06:11:24.517Z,20.07
2018-04-29T06:12:24.426Z,20.19
2018-04-29T06:13:24.339Z,20.28
2018-04-29T06:14:24.245Z,20.82
2018-04-29T06:15:24.154Z,21.33
2018-04-29T06:16:24.063Z,21.89
2018-04-29T06:17:23.973Z,22.28
2018-04-29T06:18:23.882Z,22.93
2018-04-29T06:19:23.806Z,23.40
2018-04-29T06:20:23.778Z,23.65
2018-04-29T06:21:23.621Z,24.02
2018-04-29T06:22:23.531Z,24.21
2018-04-29T06:23:23.440Z,24.40
2018-04-29T06:24:23.349Z,23.88
2018-04-29T06:25:23.272Z,23.63
2018-04-29T06:26:23.180Z,23.28
2018-04-29T06:27:23.090Z,22.69
2018-04-29T06:28:22.999Z,21.77
2018-04-29T06:29:22.907Z,21.70
2018-04-29T06:30:22.833Z,21.91
2018-04-29T06:31:22.737Z,22.02
2018-04-29T06:32:22.648Z,22.55
2018-04-29T06:33:22.557Z,22.63
2018-04-29T06:34:22.478Z,22.83
2018-04-29T06:35:22.387Z,22.84
2018-04-29T06:36:22.296Z,22.59
2018-04-29T06:37:22.206Z,22.57
2018-04-29T06:38:22.117Z,22.69
2018-04-29T06:39:22.037Z,22.81
2018-04-29T06:40:22.197Z,23.23
2018-04-29T06:41:21.855Z,23.47
2018-04-29T06:42:21.776Z,23.91
2018-04-29T06:43:21.686Z,24.24
2018-04-29T06:44:21.596Z,24.58
2018-04-29T06:45:21.505Z,24.88
2018-04-29T06:46:21.426Z,24.99
2018-04-29T06:47:21.335Z,24.92
2018-04-29T06:48:21.248Z,24.53
2018-04-29T06:49:21.154Z,24.17
2018-04-29T06:50:21.076Z,23.80
2018-04-29T06:51:20.984Z,23.24
2018-04-29T06:52:20.893Z,22.81
2018-04-29T06:53:20.819Z,22.59
2018-04-29T06:54:20.725Z,22.45
2018-04-29T06:55:20.634Z,22.41
2018-04-29T06:56:20.544Z,22.22
2018-04-29T06:57:20.466Z,22.07
2018-04-29T06:58:20.374Z,21.96
2018-04-29T06:59:20.283Z,21.83
2018-04-29T07:00:20.205Z,21.77
2018-04-29T07:01:20.116Z,21.62
2018-04-29T07:02:20.023Z,21.60
2018-04-29T07:03:19.932Z,21.43
2018-04-29T07:04:19.844Z,21.50
2018-04-29T07:05:19.764Z,21.24
2018-04-29T07:06:19.672Z,20.97
2018-04-29T07:07:19.582Z,20.70
2018-04-29T07:08:19.490Z,20.29
2018-04-29T07:09:19.401Z,20.24
2018-04-29T07:10:19.323Z,20.32
2018-04-29T07:11:19.235Z,20.36
2018-04-29T07:12:19.141Z,20.39
2018-04-29T07:13:19.050Z,20.47
2018-04-29T07:14:18.960Z,20.43
2018-04-29T07:15:18.868Z,20.59
2018-04-29T07:16:18.777Z,20.63
2018-04-29T07:17:18.686Z,20.72
2018-04-29T07:18:18.609Z,20.78
2018-04-29T07:19:18.520Z,20.84
2018-04-29T07:20:18.426Z,21.02
2018-04-29T07:21:18.336Z,21.14
2018-04-29T07:22:18.245Z,21.22
2018-04-29T07:23:18.155Z,21.69
2018-04-29T07:24:18.063Z,21.95
2018-04-29T07:25:17.974Z,21.93
2018-04-29T07:26:17.881Z,21.73
2018-04-29T07:27:17.790Z,21.62
2018-04-29T07:28:17.699Z,21.61
2018-04-29T07:29:17.610Z,21.72
2018-04-29T07:30:17.531Z,21.99
2018-04-29T07:31:17.440Z,22.45
2018-04-29T07:32:17.350Z,22.98
2018-04-29T07:33:17.259Z,23.21
2018-04-29T07:34:17.169Z,23.23
2018-04-29T07:35:17.080Z,22.68
2018-04-29T07:36:16.986Z,22.85
2018-04-29T07:37:16.895Z,23.00
2018-04-29T07:38:16.805Z,22.88
2018-04-29T07:39:16.714Z,22.70
2018-04-29T07:40:16.635Z,22.59
2018-04-29T07:41:16.546Z,22.85
2018-04-29T07:42:16.454Z,22.69
2018-04-29T07:43:16.364Z,22.69
2018-04-29T07:44:16.272Z,22.75
2018-04-29T07:45:16.181Z,22.63
2018-04-29T07:46:16.091Z,22.65
2018-04-29T07:47:16.001Z,22.70
2018-04-29T07:48:15.910Z,22.45
2018-04-29T07:49:15.829Z,22.65
2018-04-29T07:50:15.741Z,23.02
2018-04-29T07:51:15.649Z,23.15
2018-04-29T07:52:15.601Z,22.72
2018-04-29T07:53:15.467Z,23.03
2018-04-29T07:54:15.378Z,23.06
2018-04-29T07:55:15.285Z,23.21
2018-04-29T07:56:15.197Z,22.53
2018-04-29T07:57:15.118Z,22.70
2018-04-29T07:58:15.026Z,22.41
2018-04-29T07:59:14.936Z,22.18
2018-04-29T08:00:14.844Z,22.30
2018-04-29T08:01:14.754Z,22.54
2018-04-29T08:02:14.662Z,22.66
2018-04-29T08:03:14.583Z,22.65
2018-04-29T08:04:14.494Z,22.70
2018-04-29T08:05:14.404Z,22.26
2018-04-29T08:06:14.312Z,22.33
2018-04-29T08:07:14.221Z,22.23
2018-04-29T08:08:14.131Z,22.39
2018-04-29T08:09:14.041Z,22.53
2018-04-29T08:10:13.961Z,22.70
2018-04-29T08:11:13.870Z,22.28
2018-04-29T08:12:13.779Z,21.96
2018-04-29T08:13:13.691Z,21.99
2018-04-29T08:14:13.601Z,22.00
2018-04-29T08:15:13.507Z,21.82
2018-04-29T08:16:13.416Z,21.73
2018-04-29T08:17:13.326Z,21.93
2018-04-29T08:18:13.248Z,22.04
2018-04-29T08:19:13.156Z,21.77
2018-04-29T08:20:13.066Z,21.85
2018-04-29T08:21:12.974Z,21.95
2018-04-29T08:22:12.886Z,22.04
2018-04-29T08:23:12.792Z,21.89
2018-04-29T08:24:12.702Z,21.85
2018-04-29T08:25:12.612Z,21.64
2018-04-29T08:26:12.532Z,21.50
2018-04-29T08:27:12.443Z,21.55
2018-04-29T08:28:12.351Z,21.22
2018-04-29T08:29:12.261Z,21.33
2018-04-29T08:30:12.220Z,21.32
2018-04-29T08:31:12.080Z,21.30
2018-04-29T08:32:11.988Z,21.29
2018-04-29T08:33:11.898Z,21.25
2018-04-29T08:34:11.811Z,21.40
2018-04-29T08:35:11.716Z,21.52
2018-04-29T08:36:11.694Z,21.61
2018-04-29T08:37:11.546Z,21.39
2018-04-29T08:38:11.456Z,21.62
2018-04-29T08:39:11.365Z,21.55
2018-04-29T08:40:11.277Z,21.58
2018-04-29T08:41:11.183Z,21.67
2018-04-29T08:42:11.092Z,21.42
2018-04-29T08:43:11.086Z,21.25
2018-04-29T08:44:10.911Z,21.11
2018-04-29T08:45:10.826Z,20.95
2018-04-29T08:46:10.730Z,20.92
2018-04-29T08:47:10.639Z,20.87
2018-04-29T08:48:10.549Z,21.06
2018-04-29T08:49:10.457Z,21.52
2018-04-29T08:50:10.400Z,21.61
2018-04-29T08:51:10.275Z,22.10
2018-04-29T08:52:10.185Z,22.48
2018-04-29T08:53:10.093Z,22.55
2018-04-29T08:54:10.006Z,23.10
2018-04-29T08:55:09.912Z,23.41
2018-04-29T08:56:09.822Z,23.78
2018-04-29T08:57:09.744Z,24.43
2018-04-29T08:58:09.642Z,24.86
2018-04-29T08:59:09.548Z,24.50
2018-04-29T09:00:09.459Z,23.99
2018-04-29T09:01:09.369Z,24.58
2018-04-29T09:02:09.279Z,24.51
2018-04-29T09:03:09.186Z,25.08
2018-04-29T09:04:09.097Z,25.10
2018-04-29T09:05:09.004Z,24.99
2018-04-29T09:06:08.914Z,24.78
2018-04-29T09:07:08.826Z,24.42
2018-04-29T09:08:08.732Z,24.92
2018-04-29T09:09:08.644Z,25.32
2018-04-29T09:10:08.552Z,25.32
2018-04-29T09:11:08.459Z,25.44
2018-04-29T09:12:08.369Z,25.44
2018-04-29T09:13:08.280Z,25.33
2018-04-29T09:14:08.199Z,25.40
2018-04-29T09:15:08.113Z,25.32
2018-04-29T09:16:08.018Z,25.87
2018-04-29T09:17:07.941Z,25.78
2018-04-29T09:18:07.849Z,25.47
2018-04-29T09:19:07.770Z,25.38
2018-04-29T09:20:07.679Z,25.53
2018-04-29T09:21:07.593Z,25.83
2018-04-29T09:22:07.497Z,25.21
2018-04-29T09:23:07.419Z,24.99
2018-04-29T09:24:07.329Z,24.51
2018-04-29T09:25:07.253Z,24.61
2018-04-29T09:26:07.159Z,24.51
2018-04-29T09:27:07.081Z,24.85
2018-04-29T09:28:06.991Z,25.48
2018-04-29T09:29:06.900Z,26.02
2018-04-29T09:30:06.821Z,25.72
2018-04-29T09:31:06.731Z,25.96
2018-04-29T09:32:06.653Z,26.28
2018-04-29T09:33:06.561Z,26.88
2018-04-29T09:34:06.482Z,27.22
2018-04-29T09:35:06.404Z,27.35
2018-04-29T09:36:06.314Z,28.04
2018-04-29T09:37:06.257Z,27.51
2018-04-29T09:38:06.145Z,27.92
2018-04-29T09:39:06.066Z,28.05
2018-04-29T09:40:05.977Z,28.10
2018-04-29T09:41:05.899Z,27.51
2018-04-29T09:42:05.819Z,26.65
2018-04-29T09:43:05.727Z,27.18
2018-04-29T09:44:05.649Z,27.30
2018-04-29T09:45:05.571Z,27.44
2018-04-29T09:46:05.486Z,27.36
2018-04-29T09:47:05.402Z,26.34
2018-04-29T09:48:05.324Z,26.48
2018-04-29T09:49:05.237Z,26.09
2018-04-29T09:50:05.154Z,25.88
2018-04-29T09:51:05.076Z,26.40
2018-04-29T09:52:04.997Z,26.68
2018-04-29T09:53:04.907Z,26.66
2018-04-29T09:54:04.831Z,27.00
2018-04-29T09:55:04.750Z,27.70
2018-04-29T09:56:04.673Z,27.85
2018-04-29T09:57:04.580Z,28.07
2018-04-29T09:58:04.502Z,27.26
2018-04-29T09:59:04.423Z,26.70
2018-04-29T10:00:04.345Z,26.26
2018-04-29T10:01:04.337Z,26.15
2018-04-29T10:02:04.178Z,26.22
2018-04-29T10:03:04.100Z,26.66
2018-04-29T10:04:03.936Z,26.19
2018-04-29T10:05:03.931Z,26.84
2018-04-29T10:06:03.850Z,27.30
2018-04-29T10:07:03.773Z,27.11
2018-04-29T10:08:03.693Z,26.25
2018-04-29T10:09:03.621Z,26.68
2018-04-29T10:10:03.539Z,26.92
2018-04-29T10:11:03.448Z,27.37
2018-04-29T10:12:03.369Z,27.07
2018-04-29T10:13:03.294Z,25.96
2018-04-29T10:14:03.213Z,26.52
2018-04-29T10:15:03.136Z,26.89
2018-04-29T10:16:03.044Z,27.45
2018-04-29T10:17:02.964Z,27.45
2018-04-29T10:18:02.886Z,26.71
2018-04-29T10:19:02.821Z,26.59
2018-04-29T10:20:03.031Z,26.77
2018-04-29T10:21:02.650Z,26.99
2018-04-29T10:22:02.572Z,26.66
2018-04-29T10:23:02.495Z,26.73
2018-04-29T10:24:02.416Z,26.80
2018-04-29T10:25:02.327Z,27.07
2018-04-29T10:26:02.248Z,27.07
2018-04-29T10:27:02.171Z,26.56
2018-04-29T10:28:02.092Z,26.96
2018-04-29T10:29:02.016Z,27.39
2018-04-29T10:30:01.935Z,27.68
2018-04-29T10:31:01.856Z,27.75
2018-04-29T10:32:01.778Z,28.01
2018-04-29T10:33:01.739Z,28.37
2018-04-29T10:34:01.621Z,27.52
2018-04-29T10:35:01.543Z,27.96
2018-04-29T10:36:01.465Z,28.04
2018-04-29T10:37:01.387Z,27.52
2018-04-29T10:38:01.309Z,26.84
2018-04-29T10:39:01.218Z,26.68
2018-04-29T10:40:01.151Z,26.77
2018-04-29T10:41:01.067Z,27.18
2018-04-29T10:42:00.981Z,28.08
2018-04-29T10:43:00.903Z,28.05
2018-04-29T10:44:00.825Z,28.35
2018-04-29T10:45:00.747Z,29.07
2018-04-29T10:46:00.668Z,29.69
2018-04-29T10:47:00.585Z,30.09
2018-04-29T10:48:00.511Z,29.84
2018-04-29T10:49:00.433Z,29.38
2018-04-29T10:50:00.356Z,29.86
2018-04-29T10:51:00.276Z,29.59
2018-04-29T10:52:00.217Z,29.73
2018-04-29T10:53:00.120Z,30.05
2018-04-29T10:54:00.042Z,29.69
2018-04-29T10:54:59.963Z,30.19
2018-04-29T10:55:59.889Z,30.09
2018-04-29T10:56:59.807Z,30.53
2018-04-29T10:57:59.728Z,30.90
2018-04-29T10:58:59.650Z,31.42
2018-04-29T10:59:59.871Z,31.52
2018-04-29T11:00:59.500Z,30.46
2018-04-29T11:01:59.415Z,29.68
2018-04-29T11:02:59.338Z,28.63
2018-04-29T11:03:59.260Z,28.49
2018-04-29T11:04:59.197Z,29.10
2018-04-29T11:05:59.115Z,29.29
2018-04-29T11:06:59.037Z,29.73
2018-04-29T11:07:58.959Z,29.66
2018-04-29T11:08:58.880Z,30.19
2018-04-29T11:09:58.802Z,30.61
2018-04-29T11:10:58.724Z,30.34
2018-04-29T11:11:58.645Z,30.02
2018-04-29T11:12:58.567Z,28.35
2018-04-29T11:13:58.489Z,27.70
2018-04-29T11:14:58.410Z,28.22
2018-04-29T11:15:58.332Z,27.80
2018-04-29T11:16:58.254Z,27.42
2018-04-29T11:17:58.176Z,27.98
2018-04-29T11:18:58.096Z,28.37
2018-04-29T11:19:58.019Z,28.33
2018-04-29T11:20:57.949Z,28.70
2018-04-29T11:21:57.863Z,28.67
2018-04-29T11:22:57.784Z,28.30
2018-04-29T11:23:57.705Z,27.89
2018-04-29T11:24:57.686Z,26.93
2018-04-29T11:25:57.549Z,25.90
2018-04-29T11:26:57.471Z,25.68
2018-04-29T11:27:57.392Z,25.41
2018-04-29T11:28:57.302Z,25.35
2018-04-29T11:29:57.222Z,25.46
2018-04-29T11:30:57.144Z,25.35
2018-04-29T11:31:57.068Z,25.14
2018-04-29T11:32:56.987Z,24.99
2018-04-29T11:33:56.971Z,24.54
2018-04-29T11:34:56.821Z,24.24
2018-04-29T11:35:56.741Z,24.18
2018-04-29T11:36:56.662Z,24.30
2018-04-29T11:37:56.570Z,24.17
2018-04-29T11:38:56.492Z,24.14
2018-04-29T11:39:56.406Z,24.18
2018-04-29T11:40:56.324Z,24.20
2018-04-29T11:41:56.233Z,24.11
2018-04-29T11:42:56.156Z,24.03
2018-04-29T11:43:56.064Z,23.78
2018-04-29T11:44:55.985Z,23.76
2018-04-29T11:45:55.907Z,23.74
2018-04-29T11:46:55.828Z,23.86
2018-04-29T11:47:55.727Z,23.87
2018-04-29T11:48:55.635Z,23.87
2018-04-29T11:49:55.859Z,23.77
2018-04-29T11:50:55.465Z,23.87
2018-04-29T11:51:55.397Z,23.93
2018-04-29T11:52:55.296Z,23.92
2018-04-29T11:53:55.206Z,23.87
2018-04-29T11:54:55.116Z,23.66
2018-04-29T11:55:55.036Z,23.71
2018-04-29T11:56:54.949Z,23.66
2018-04-29T11:57:54.854Z,23.86
2018-04-29T11:58:54.765Z,23.96
2018-04-29T11:59:54.935Z,24.03
2018-04-29T12:00:54.594Z,24.23
2018-04-29T12:01:54.570Z,24.65
2018-04-29T12:02:54.412Z,24.80
2018-04-29T12:03:54.323Z,24.89
2018-04-29T12:04:54.244Z,24.81
2018-04-29T12:05:54.152Z,24.91
2018-04-29T12:06:54.068Z,24.86
2018-04-29T12:07:53.970Z,24.53
2018-04-29T12:08:53.880Z,24.53
2018-04-29T12:09:53.866Z,24.35
2018-04-29T12:10:53.712Z,24.36
2018-04-29T12:11:53.621Z,24.29
2018-04-29T12:12:53.531Z,24.26
2018-04-29T12:13:53.451Z,24.40
2018-04-29T12:14:53.361Z,24.40
2018-04-29T12:15:53.269Z,24.40
2018-04-29T12:16:53.183Z,24.47
2018-04-29T12:17:53.092Z,24.33
2018-04-29T12:18:53.014Z,24.21
2018-04-29T12:19:52.922Z,24.13
2018-04-29T12:20:52.828Z,24.26
2018-04-29T12:21:52.738Z,24.28
2018-04-29T12:22:52.659Z,24.32
2018-04-29T12:23:52.567Z,24.23
2018-04-29T12:24:52.477Z,24.24
2018-04-29T12:25:52.386Z,24.38
2018-04-29T12:26:52.298Z,24.43
2018-04-29T12:27:52.205Z,24.50
2018-04-29T12:28:52.126Z,24.53
2018-04-29T12:29:52.035Z,24.50
2018-04-29T12:30:51.944Z,24.53
2018-04-29T12:31:51.854Z,24.50
2018-04-29T12:32:51.763Z,24.50
2018-04-29T12:33:51.684Z,24.53
2018-04-29T12:34:51.594Z,24.38
2018-04-29T12:35:51.502Z,24.48
2018-04-29T12:36:51.413Z,24.48
2018-04-29T12:37:51.322Z,24.43
2018-04-29T12:38:51.231Z,24.40
2018-04-29T12:39:51.224Z,24.33
2018-04-29T12:40:51.061Z,24.40
2018-04-29T12:41:50.971Z,24.50
2018-04-29T12:42:50.879Z,24.54
2018-04-29T12:43:50.790Z,24.60
2018-04-29T12:44:50.698Z,24.74
2018-04-29T12:45:50.608Z,24.68
2018-04-29T12:46:50.529Z,24.84
2018-04-29T12:47:50.452Z,24.92
2018-04-29T12:48:50.348Z,24.81
2018-04-29T12:49:50.257Z,24.84
2018-04-29T12:50:50.178Z,24.85